VVNBVLVT

Guest
Details From VVNB - Hanoi Noibai Intl
To VLVT - Wattay Intl
Flight Number -
Tags Generated
Created
Modified
Stats Distance 267 nm / 494 km
Max Altitude 0 ft / 0 m
Waypoints 3
Social Downloads 0
Likes 0
Share VATSIM

Download

Looking for another format? Having issues loading an existing format? Contact us
Advertisement - Login to hide

Notes

Generated

Route

VVNB VTG VLVT

ID Type Via Altitude Latitude Longitude Leg Dist Tot Dist Heading (true) Name
O VVNB APT - 0 ft / 0 m 21.22489˚ 105.78623˚ - 0 nm - -
VTG NDB - 0 ft / 0 m 18.13806˚ 102.63333˚ 257 nm 257 nm 224° / 223° THANGONE NDB
O VLVT APT - 0 ft / 0 m 17.99781˚ 102.55332˚ 9 nm 266 nm 208° / 208° -

Altitude Profile

Advertisement - Login to hide

Weather


0- 5 10 15 20 25 30 35+ Temperature / ° C

Clouds and Precipitation
Forecast for 2018-05-26 06:00 UTC. Updated 5 hours ago

Ground ~20,000 ft ~40,000 ft Winds

VVNB

Details ICAO VVNB (HAN)
Name Hanoi Noibai Intl
Region Vietnam
Timezone Asia/Ho_Chi_Minh (UTC+7.0)
Stats Elevation 39 ft / 12 m (AMSL)
Location 21.219739° 105.803774°
Runways 2
Magnetic Variation 1.490° W

METAR

VVNB 261000Z 10011KT CAVOK 35/26 Q1002 NOSIG

Decode

TAF

TAF VVNB 260500Z 2606/2706 11007KT 8000 FEW020 BECMG 2701/2702 03008KT TEMPO 2703/2706 03010G20KT 3000 +TSRA SCT010 FEW027CB

Decode

Departure Runways

ID Width Length Bearing (true) Bearing (mag) Surface Threshold Offset Overrun Length
11L 148 ft / 45 m 12,454 ft / 3,796 m 107.24° 108.73° Concrete 0 ft / 0 m 0 ft / 0 m
11R 148 ft / 45 m 12,456 ft / 3,797 m 107.22° 108.71° Concrete 0 ft / 0 m 325 ft / 99 m
29L 148 ft / 45 m 12,456 ft / 3,797 m 287.23° 288.72° Concrete 0 ft / 0 m 325 ft / 99 m
29R 148 ft / 45 m 12,454 ft / 3,796 m 287.25° 288.74° Concrete 0 ft / 0 m 868 ft / 265 m

VLVT

Details ICAO VLVT (VTE)
Name Vientiane Wattay
Region Laos
Timezone Asia/Vientiane (UTC+7.0)
Stats Elevation 1,850 ft / 564 m (AMSL)
Location 17.988343° 102.563222°
Runways 1
Magnetic Variation 0.902° W

METAR

VLVT 261000Z 20004KT 7000 TS FEW020CB BKN040 31/25 Q1006 CB SW NOSIG

Decode

TAF

TAF TAF VLVT 260500Z 2606/2706 22004KT 8000 SCT016 SCT040 TEMPO 2614/2620 4000 BR FEW020 SCT040

Decode

Destination Runways

ID Width Length Bearing (true) Bearing (mag) Surface Threshold Offset Overrun Length
13 148 ft / 45 m 9,862 ft / 3,006 m 135.42° 136.32° Asphalt 0 ft / 0 m 0 ft / 0 m
31 148 ft / 45 m 9,862 ft / 3,006 m 315.42° 316.32° Asphalt 0 ft / 0 m 0 ft / 0 m

Approach Navaids

Runway Type Ident Frequency Range Bearing (true) Bearing (mag) Slope Elevation
13 Localiser IVTN 109.90 MHz 18 nm / 33 km 135.43° 136.33° - 553 ft / 169 m (AMSL)
13 Glidescope IVTN 109.90 MHz 10 nm / 19 km 136.00° 136.90° 3.00° 550 ft / 168 m (AMSL)
13 DME IVTN 109.90 MHz 18 nm / 33 km - - - 550 ft / 168 m (AMSL)

Popular Alternatives